sensor_id;sensor_type;location;lat;lon;timestamp;temperature;humidity
8711;DHT22;4392;47.400;8.062;2023-02-25T00:01:28;12.90;98.60
8711;DHT22;4392;47.400;8.062;2023-02-25T00:04:00;12.70;99.90
8711;DHT22;4392;47.400;8.062;2023-02-25T00:06:25;12.60;99.90
8711;DHT22;4392;47.400;8.062;2023-02-25T00:08:52;12.40;99.90
8711;DHT22;4392;47.400;8.062;2023-02-25T00:11:19;12.40;99.90
8711;DHT22;4392;47.400;8.062;2023-02-25T00:13:45;12.40;99.90
8711;DHT22;4392;47.400;8.062;2023-02-25T00:16:12;12.20;99.90
8711;DHT22;4392;47.400;8.062;2023-02-25T00:18:41;11.80;99.90
8711;DHT22;4392;47.400;8.062;2023-02-25T00:21:12;11.10;99.90
8711;DHT22;4392;47.400;8.062;2023-02-25T00:23:46;10.80;99.90
8711;DHT22;4392;47.400;8.062;2023-02-25T00:26:12;10.50;99.90
8711;DHT22;4392;47.400;8.062;2023-02-25T00:28:45;10.50;99.90
8711;DHT22;4392;47.400;8.062;2023-02-25T00:31:18;10.20;99.90
8711;DHT22;4392;47.400;8.062;2023-02-25T00:33:47;10.40;99.90
8711;DHT22;4392;47.400;8.062;2023-02-25T00:36:16;10.40;99.90
8711;DHT22;4392;47.400;8.062;2023-02-25T00:38:46;10.40;99.90
8711;DHT22;4392;47.400;8.062;2023-02-25T00:41:26;10.30;99.90
8711;DHT22;4392;47.400;8.062;2023-02-25T00:43:58;10.30;99.90
8711;DHT22;4392;47.400;8.062;2023-02-25T00:46:24;10.10;99.90
8711;DHT22;4392;47.400;8.062;2023-02-25T00:48:53;10.00;99.90
8711;DHT22;4392;47.400;8.062;2023-02-25T00:51:22;10.10;99.90
8711;DHT22;4392;47.400;8.062;2023-02-25T00:53:48;10.00;99.90
8711;DHT22;4392;47.400;8.062;2023-02-25T00:56:15;10.00;99.90
8711;DHT22;4392;47.400;8.062;2023-02-25T00:58:46;10.10;99.90
8711;DHT22;4392;47.400;8.062;2023-02-25T01:01:18;10.20;99.90
8711;DHT22;4392;47.400;8.062;2023-02-25T01:03:48;10.30;99.90
8711;DHT22;4392;47.400;8.062;2023-02-25T01:06:14;10.40;99.90
8711;DHT22;4392;47.400;8.062;2023-02-25T01:08:40;10.50;99.90
8711;DHT22;4392;47.400;8.062;2023-02-25T01:11:35;10.50;99.90
8711;DHT22;4392;47.400;8.062;2023-02-25T01:14:09;10.50;99.90
8711;DHT22;4392;47.400;8.062;2023-02-25T01:16:37;10.50;99.90
8711;DHT22;4392;47.400;8.062;2023-02-25T01:19:05;10.50;99.90
8711;DHT22;4392;47.400;8.062;2023-02-25T01:21:39;10.60;99.90
8711;DHT22;4392;47.400;8.062;2023-02-25T01:24:24;10.50;99.90
8711;DHT22;4392;47.400;8.062;2023-02-25T01:26:52;10.50;99.90
8711;DHT22;4392;47.400;8.062;2023-02-25T01:29:21;10.50;99.90
8711;DHT22;4392;47.400;8.062;2023-02-25T01:32:14;10.60;99.90
8711;DHT22;4392;47.400;8.062;2023-02-25T01:34:42;10.70;99.90
8711;DHT22;4392;47.400;8.062;2023-02-25T01:37:11;10.60;99.90
8711;DHT22;4392;47.400;8.062;2023-02-25T01:39:38;10.50;99.90
8711;DHT22;4392;47.400;8.062;2023-02-25T01:42:15;10.40;99.90
8711;DHT22;4392;47.400;8.062;2023-02-25T01:47:54;10.40;99.90
8711;DHT22;4392;47.400;8.062;2023-02-25T01:50:26;10.30;99.90
8711;DHT22;4392;47.400;8.062;2023-02-25T01:53:01;10.30;99.90
8711;DHT22;4392;47.400;8.062;2023-02-25T01:55:28;10.20;99.90
8711;DHT22;4392;47.400;8.062;2023-02-25T01:57:57;10.40;99.90
8711;DHT22;4392;47.400;8.062;2023-02-25T02:00:31;10.40;99.90
8711;DHT22;4392;47.400;8.062;2023-02-25T02:03:03;10.30;99.90
8711;DHT22;4392;47.400;8.062;2023-02-25T02:05:41;10.20;99.90
8711;DHT22;4392;47.400;8.062;2023-02-25T02:08:10;10.00;99.90
8711;DHT22;4392;47.400;8.062;2023-02-25T02:10:39;10.10;99.90
8711;DHT22;4392;47.400;8.062;2023-02-25T02:13:04;10.00;99.90
8711;DHT22;4392;47.400;8.062;2023-02-25T02:15:33;10.00;99.90
8711;DHT22;4392;47.400;8.062;2023-02-25T02:18:08;10.10;99.90
8711;DHT22;4392;47.400;8.062;2023-02-25T02:20:58;9.90;99.90
8711;DHT22;4392;47.400;8.062;2023-02-25T02:24:01;9.70;99.90
8711;DHT22;4392;47.400;8.062;2023-02-25T02:26:57;9.90;99.90
8711;DHT22;4392;47.400;8.062;2023-02-25T02:35:25;10.00;99.90
8711;DHT22;4392;47.400;8.062;2023-02-25T02:38:32;9.50;99.90
8711;DHT22;4392;47.400;8.062;2023-02-25T02:41:40;9.60;99.90
8711;DHT22;4392;47.400;8.062;2023-02-25T02:50:01;9.80;99.90
8711;DHT22;4392;47.400;8.062;2023-02-25T02:52:37;9.20;99.90
8711;DHT22;4392;47.400;8.062;2023-02-25T02:57:36;9.40;99.90
8711;DHT22;4392;47.400;8.062;2023-02-25T03:00:11;9.30;99.90
8711;DHT22;4392;47.400;8.062;2023-02-25T03:02:58;9.10;99.90
8711;DHT22;4392;47.400;8.062;2023-02-25T03:05:28;9.30;99.90
8711;DHT22;4392;47.400;8.062;2023-02-25T03:08:45;9.40;99.90
8711;DHT22;4392;47.400;8.062;2023-02-25T03:11:15;9.70;99.90
8711;DHT22;4392;47.400;8.062;2023-02-25T03:13:44;9.70;99.90
8711;DHT22;4392;47.400;8.062;2023-02-25T03:16:19;9.30;99.90
8711;DHT22;4392;47.400;8.062;2023-02-25T03:18:53;9.00;99.90
8711;DHT22;4392;47.400;8.062;2023-02-25T03:21:31;9.20;99.90
8711;DHT22;4392;47.400;8.062;2023-02-25T03:24:06;9.30;99.90
8711;DHT22;4392;47.400;8.062;2023-02-25T03:26:33;9.00;99.90
8711;DHT22;4392;47.400;8.062;2023-02-25T03:28:59;9.00;99.90
8711;DHT22;4392;47.400;8.062;2023-02-25T03:31:33;8.90;99.90
8711;DHT22;4392;47.400;8.062;2023-02-25T03:34:14;8.80;99.90
8711;DHT22;4392;47.400;8.062;2023-02-25T03:37:13;8.80;99.90
8711;DHT22;4392;47.400;8.062;2023-02-25T03:39:46;8.60;99.90
8711;DHT22;4392;47.400;8.062;2023-02-25T03:42:19;8.40;99.90
8711;DHT22;4392;47.400;8.062;2023-02-25T03:44:49;8.70;99.90
8711;DHT22;4392;47.400;8.062;2023-02-25T03:47:22;8.80;99.90
8711;DHT22;4392;47.400;8.062;2023-02-25T03:52:33;8.90;99.90
8711;DHT22;4392;47.400;8.062;2023-02-25T03:55:00;9.20;99.90
8711;DHT22;4392;47.400;8.062;2023-02-25T03:57:36;9.30;99.90
8711;DHT22;4392;47.400;8.062;2023-02-25T04:00:15;9.30;99.90
8711;DHT22;4392;47.400;8.062;2023-02-25T04:02:47;9.40;99.90
8711;DHT22;4392;47.400;8.062;2023-02-25T04:05:14;9.50;99.90
8711;DHT22;4392;47.400;8.062;2023-02-25T04:07:43;9.50;99.90
8711;DHT22;4392;47.400;8.062;2023-02-25T04:10:11;9.70;99.90
8711;DHT22;4392;47.400;8.062;2023-02-25T04:12:37;9.80;99.90
8711;DHT22;4392;47.400;8.062;2023-02-25T04:15:04;9.70;99.90
8711;DHT22;4392;47.400;8.062;2023-02-25T04:17:39;9.70;99.90
8711;DHT22;4392;47.400;8.062;2023-02-25T04:20:11;9.80;99.90
8711;DHT22;4392;47.400;8.062;2023-02-25T04:22:37;9.80;99.20
8711;DHT22;4392;47.400;8.062;2023-02-25T04:25:04;9.80;98.40
8711;DHT22;4392;47.400;8.062;2023-02-25T04:27:30;9.80;98.10
8711;DHT22;4392;47.400;8.062;2023-02-25T04:29:57;9.70;98.30
8711;DHT22;4392;47.400;8.062;2023-02-25T04:32:26;9.70;98.50
8711;DHT22;4392;47.400;8.062;2023-02-25T04:34:51;9.70;96.70
8711;DHT22;4392;47.400;8.062;2023-02-25T04:37:17;9.80;98.10
8711;DHT22;4392;47.400;8.062;2023-02-25T04:39:47;9.90;97.40
8711;DHT22;4392;47.400;8.062;2023-02-25T04:42:13;9.60;95.70
8711;DHT22;4392;47.400;8.062;2023-02-25T04:44:39;9.30;96.50
8711;DHT22;4392;47.400;8.062;2023-02-25T04:47:04;9.30;97.20
8711;DHT22;4392;47.400;8.062;2023-02-25T04:49:30;9.20;97.80
8711;DHT22;4392;47.400;8.062;2023-02-25T04:51:56;9.10;98.30
8711;DHT22;4392;47.400;8.062;2023-02-25T04:54:24;9.10;99.00
8711;DHT22;4392;47.400;8.062;2023-02-25T04:56:51;9.40;98.30
8711;DHT22;4392;47.400;8.062;2023-02-25T04:59:17;9.60;97.40
8711;DHT22;4392;47.400;8.062;2023-02-25T05:01:43;9.50;97.70
8711;DHT22;4392;47.400;8.062;2023-02-25T05:04:14;9.60;97.40
8711;DHT22;4392;47.400;8.062;2023-02-25T05:06:40;9.60;97.20
8711;DHT22;4392;47.400;8.062;2023-02-25T05:09:12;9.60;97.00
8711;DHT22;4392;47.400;8.062;2023-02-25T05:11:38;9.60;96.90
8711;DHT22;4392;47.400;8.062;2023-02-25T05:14:04;9.60;96.80
8711;DHT22;4392;47.400;8.062;2023-02-25T05:16:30;9.60;96.80
8711;DHT22;4392;47.400;8.062;2023-02-25T05:18:55;9.60;96.70
8711;DHT22;4392;47.400;8.062;2023-02-25T05:21:25;9.60;96.70
8711;DHT22;4392;47.400;8.062;2023-02-25T05:23:51;9.60;95.80
8711;DHT22;4392;47.400;8.062;2023-02-25T05:26:24;9.50;96.30
8711;DHT22;4392;47.400;8.062;2023-02-25T05:28:51;9.60;96.60
8711;DHT22;4392;47.400;8.062;2023-02-25T05:31:17;9.60;96.50
8711;DHT22;4392;47.400;8.062;2023-02-25T05:33:46;10.00;99.90
8711;DHT22;4392;47.400;8.062;2023-02-25T05:36:13;9.90;98.10
8711;DHT22;4392;47.400;8.062;2023-02-25T05:38:42;9.60;95.90
8711;DHT22;4392;47.400;8.062;2023-02-25T05:41:15;9.50;95.90
8711;DHT22;4392;47.400;8.062;2023-02-25T05:43:41;9.40;95.40
8711;DHT22;4392;47.400;8.062;2023-02-25T05:46:13;9.40;95.60
8711;DHT22;4392;47.400;8.062;2023-02-25T05:48:42;9.30;95.70
8711;DHT22;4392;47.400;8.062;2023-02-25T05:51:17;9.30;95.90
8711;DHT22;4392;47.400;8.062;2023-02-25T05:53:47;9.30;95.70
8711;DHT22;4392;47.400;8.062;2023-02-25T05:56:21;9.30;95.30
8711;DHT22;4392;47.400;8.062;2023-02-25T05:59:02;9.30;95.10
8711;DHT22;4392;47.400;8.062;2023-02-25T06:01:28;9.40;95.10
8711;DHT22;4392;47.400;8.062;2023-02-25T06:03:59;9.40;95.10
8711;DHT22;4392;47.400;8.062;2023-02-25T06:06:28;9.20;94.50
8711;DHT22;4392;47.400;8.062;2023-02-25T06:09:00;9.20;95.10
8711;DHT22;4392;47.400;8.062;2023-02-25T06:11:27;9.10;95.50
8711;DHT22;4392;47.400;8.062;2023-02-25T06:13:55;9.20;95.10
8711;DHT22;4392;47.400;8.062;2023-02-25T06:16:28;9.30;95.00
8711;DHT22;4392;47.400;8.062;2023-02-25T06:18:57;9.30;94.40
8711;DHT22;4392;47.400;8.062;2023-02-25T06:21:27;9.30;94.10
8711;DHT22;4392;47.400;8.062;2023-02-25T06:23:53;9.20;93.90
8711;DHT22;4392;47.400;8.062;2023-02-25T06:26:19;9.20;94.20
8711;DHT22;4392;47.400;8.062;2023-02-25T06:28:45;9.10;94.30
8711;DHT22;4392;47.400;8.062;2023-02-25T06:31:22;8.90;95.30
8711;DHT22;4392;47.400;8.062;2023-02-25T06:33:52;8.80;96.30
8711;DHT22;4392;47.400;8.062;2023-02-25T06:36:20;8.90;96.40
8711;DHT22;4392;47.400;8.062;2023-02-25T06:38:46;8.80;96.00
8711;DHT22;4392;47.400;8.062;2023-02-25T06:41:19;8.90;95.60
8711;DHT22;4392;47.400;8.062;2023-02-25T06:43:46;9.00;95.70
8711;DHT22;4392;47.400;8.062;2023-02-25T06:46:20;9.10;95.80
8711;DHT22;4392;47.400;8.062;2023-02-25T06:48:46;9.10;95.50
8711;DHT22;4392;47.400;8.062;2023-02-25T06:51:17;9.10;95.20
8711;DHT22;4392;47.400;8.062;2023-02-25T06:53:44;9.10;94.70
8711;DHT22;4392;47.400;8.062;2023-02-25T06:56:13;10.30;99.90
8711;DHT22;4392;47.400;8.062;2023-02-25T06:58:42;10.90;99.90
8711;DHT22;4392;47.400;8.062;2023-02-25T07:01:11;10.20;94.70
8711;DHT22;4392;47.400;8.062;2023-02-25T07:03:38;9.90;95.00
8711;DHT22;4392;47.400;8.062;2023-02-25T07:06:10;9.70;94.80
8711;DHT22;4392;47.400;8.062;2023-02-25T07:08:38;9.60;95.10
8711;DHT22;4392;47.400;8.062;2023-02-25T07:13:56;9.60;95.60
8711;DHT22;4392;47.400;8.062;2023-02-25T07:16:22;9.60;95.50
8711;DHT22;4392;47.400;8.062;2023-02-25T07:18:48;9.60;95.50
8711;DHT22;4392;47.400;8.062;2023-02-25T07:21:15;9.60;95.30
8711;DHT22;4392;47.400;8.062;2023-02-25T07:23:45;9.60;95.10
8711;DHT22;4392;47.400;8.062;2023-02-25T07:26:12;9.50;94.60
8711;DHT22;4392;47.400;8.062;2023-02-25T07:28:39;9.40;94.40
8711;DHT22;4392;47.400;8.062;2023-02-25T07:31:14;9.30;94.20
8711;DHT22;4392;47.400;8.062;2023-02-25T07:33:45;9.20;95.10
8711;DHT22;4392;47.400;8.062;2023-02-25T07:36:14;9.30;95.00
8711;DHT22;4392;47.400;8.062;2023-02-25T07:38:41;9.30;94.90
8711;DHT22;4392;47.400;8.062;2023-02-25T07:41:13;9.30;95.10
8711;DHT22;4392;47.400;8.062;2023-02-25T07:43:40;9.40;95.00
8711;DHT22;4392;47.400;8.062;2023-02-25T07:46:12;9.40;93.30
8711;DHT22;4392;47.400;8.062;2023-02-25T07:48:38;9.40;92.90
8711;DHT22;4392;47.400;8.062;2023-02-25T07:51:13;9.10;92.80
8711;DHT22;4392;47.400;8.062;2023-02-25T07:53:43;9.00;93.30
8711;DHT22;4392;47.400;8.062;2023-02-25T07:56:17;9.10;92.80
8711;DHT22;4392;47.400;8.062;2023-02-25T07:58:46;9.20;92.40
8711;DHT22;4392;47.400;8.062;2023-02-25T08:01:28;9.00;92.70
8711;DHT22;4392;47.400;8.062;2023-02-25T08:04:14;9.10;92.60
8711;DHT22;4392;47.400;8.062;2023-02-25T08:06:40;9.00;92.10
8711;DHT22;4392;47.400;8.062;2023-02-25T08:09:16;9.10;92.00
8711;DHT22;4392;47.400;8.062;2023-02-25T08:11:42;9.20;91.90
8711;DHT22;4392;47.400;8.062;2023-02-25T08:14:09;9.00;91.80
8711;DHT22;4392;47.400;8.062;2023-02-25T08:16:41;8.90;92.00
8711;DHT22;4392;47.400;8.062;2023-02-25T08:19:06;8.70;92.70
8711;DHT22;4392;47.400;8.062;2023-02-25T08:21:32;8.70;92.80
8711;DHT22;4392;47.400;8.062;2023-02-25T08:24:03;8.90;92.50
8711;DHT22;4392;47.400;8.062;2023-02-25T08:26:29;9.00;92.10
8711;DHT22;4392;47.400;8.062;2023-02-25T08:28:55;8.70;92.20
8711;DHT22;4392;47.400;8.062;2023-02-25T08:31:21;8.60;92.50
8711;DHT22;4392;47.400;8.062;2023-02-25T08:33:51;8.80;92.60
8711;DHT22;4392;47.400;8.062;2023-02-25T08:36:23;8.90;92.20
8711;DHT22;4392;47.400;8.062;2023-02-25T08:38:55;8.80;92.10
8711;DHT22;4392;47.400;8.062;2023-02-25T08:41:27;8.90;91.80
8711;DHT22;4392;47.400;8.062;2023-02-25T08:43:55;8.90;91.80
8711;DHT22;4392;47.400;8.062;2023-02-25T08:46:22;8.90;91.90
8711;DHT22;4392;47.400;8.062;2023-02-25T08:48:55;9.00;91.50
8711;DHT22;4392;47.400;8.062;2023-02-25T08:51:24;9.20;91.10
8711;DHT22;4392;47.400;8.062;2023-02-25T08:54:07;8.90;90.40
8711;DHT22;4392;47.400;8.062;2023-02-25T08:56:34;8.80;91.20
8711;DHT22;4392;47.400;8.062;2023-02-25T08:59:06;9.00;91.00
8711;DHT22;4392;47.400;8.062;2023-02-25T09:01:32;9.00;90.30
8711;DHT22;4392;47.400;8.062;2023-02-25T09:04:22;8.90;90.00
8711;DHT22;4392;47.400;8.062;2023-02-25T09:06:53;8.90;91.30
8711;DHT22;4392;47.400;8.062;2023-02-25T09:09:23;9.00;91.50
8711;DHT22;4392;47.400;8.062;2023-02-25T09:11:55;9.00;91.10
8711;DHT22;4392;47.400;8.062;2023-02-25T09:14:21;9.00;90.70
8711;DHT22;4392;47.400;8.062;2023-02-25T09:16:47;9.10;90.50
8711;DHT22;4392;47.400;8.062;2023-02-25T09:19:16;8.90;91.60
8711;DHT22;4392;47.400;8.062;2023-02-25T09:21:47;9.20;91.80
8711;DHT22;4392;47.400;8.062;2023-02-25T09:24:13;9.10;91.80
8711;DHT22;4392;47.400;8.062;2023-02-25T09:26:43;9.00;91.80
8711;DHT22;4392;47.400;8.062;2023-02-25T09:29:09;9.00;91.40
8711;DHT22;4392;47.400;8.062;2023-02-25T09:31:35;9.10;91.30
8711;DHT22;4392;47.400;8.062;2023-02-25T09:34:03;9.30;91.10
8711;DHT22;4392;47.400;8.062;2023-02-25T09:36:35;9.20;91.00
8711;DHT22;4392;47.400;8.062;2023-02-25T09:39:04;9.20;91.00
8711;DHT22;4392;47.400;8.062;2023-02-25T09:41:51;9.20;91.30
8711;DHT22;4392;47.400;8.062;2023-02-25T09:44:31;9.30;90.90
8711;DHT22;4392;47.400;8.062;2023-02-25T09:50:11;9.40;89.20
8711;DHT22;4392;47.400;8.062;2023-02-25T09:52:41;9.50;89.80
8711;DHT22;4392;47.400;8.062;2023-02-25T09:55:14;9.50;89.40
8711;DHT22;4392;47.400;8.062;2023-02-25T09:57:57;9.40;88.70
8711;DHT22;4392;47.400;8.062;2023-02-25T10:00:34;9.30;89.10
8711;DHT22;4392;47.400;8.062;2023-02-25T10:06:30;9.40;89.70
8711;DHT22;4392;47.400;8.062;2023-02-25T10:20:31;9.70;84.80
8711;DHT22;4392;47.400;8.062;2023-02-25T10:23:12;9.60;84.60
8711;DHT22;4392;47.400;8.062;2023-02-25T10:25:59;9.60;84.90
8711;DHT22;4392;47.400;8.062;2023-02-25T10:28:34;9.50;84.10
8711;DHT22;4392;47.400;8.062;2023-02-25T10:31:19;9.50;83.70
8711;DHT22;4392;47.400;8.062;2023-02-25T10:33:48;9.60;83.60
8711;DHT22;4392;47.400;8.062;2023-02-25T10:38:52;9.60;83.90
8711;DHT22;4392;47.400;8.062;2023-02-25T10:41:26;9.70;83.30
8711;DHT22;4392;47.400;8.062;2023-02-25T10:43:57;9.50;84.00
8711;DHT22;4392;47.400;8.062;2023-02-25T10:46:31;9.60;83.90
8711;DHT22;4392;47.400;8.062;2023-02-25T10:49:00;9.80;83.80
8711;DHT22;4392;47.400;8.062;2023-02-25T10:51:26;9.50;83.40
8711;DHT22;4392;47.400;8.062;2023-02-25T10:56:46;9.60;85.00
8711;DHT22;4392;47.400;8.062;2023-02-25T10:59:28;9.50;82.70
8711;DHT22;4392;47.400;8.062;2023-02-25T11:01:58;9.20;83.70
8711;DHT22;4392;47.400;8.062;2023-02-25T11:04:35;9.20;83.60
8711;DHT22;4392;47.400;8.062;2023-02-25T11:07:01;9.30;83.80
8711;DHT22;4392;47.400;8.062;2023-02-25T11:12:49;9.20;83.50
8711;DHT22;4392;47.400;8.062;2023-02-25T11:15:35;9.00;82.90
8711;DHT22;4392;47.400;8.062;2023-02-25T11:18:13;9.10;83.20
8711;DHT22;4392;47.400;8.062;2023-02-25T11:20:49;9.30;83.10
8711;DHT22;4392;47.400;8.062;2023-02-25T11:23:29;9.40;82.60
8711;DHT22;4392;47.400;8.062;2023-02-25T11:26:06;9.10;82.40
8711;DHT22;4392;47.400;8.062;2023-02-25T11:28:39;9.00;82.10
8711;DHT22;4392;47.400;8.062;2023-02-25T11:33:41;9.00;83.40
8711;DHT22;4392;47.400;8.062;2023-02-25T11:36:18;9.20;83.00
8711;DHT22;4392;47.400;8.062;2023-02-25T11:38:45;9.30;83.00
8711;DHT22;4392;47.400;8.062;2023-02-25T11:41:21;9.40;82.50
8711;DHT22;4392;47.400;8.062;2023-02-25T11:43:49;9.40;82.10
8711;DHT22;4392;47.400;8.062;2023-02-25T11:46:25;9.50;81.50
8711;DHT22;4392;47.400;8.062;2023-02-25T11:49:22;9.50;79.50
8711;DHT22;4392;47.400;8.062;2023-02-25T11:57:42;9.20;76.50
8711;DHT22;4392;47.400;8.062;2023-02-25T12:08:46;9.30;75.10
8711;DHT22;4392;47.400;8.062;2023-02-25T12:28:20;9.20;73.40
8711;DHT22;4392;47.400;8.062;2023-02-25T12:36:11;9.60;73.90
8711;DHT22;4392;47.400;8.062;2023-02-25T12:47:20;9.30;77.10
8711;DHT22;4392;47.400;8.062;2023-02-25T13:06:54;9.10;78.50
8711;DHT22;4392;47.400;8.062;2023-02-25T13:18:10;8.80;77.00
8711;DHT22;4392;47.400;8.062;2023-02-25T13:29:18;8.90;78.10
8711;DHT22;4392;47.400;8.062;2023-02-25T13:40:33;9.00;77.00
8711;DHT22;4392;47.400;8.062;2023-02-25T13:57:34;9.10;75.50
8711;DHT22;4392;47.400;8.062;2023-02-25T14:14:51;8.40;73.70
8711;DHT22;4392;47.400;8.062;2023-02-25T14:29:20;8.70;70.00
8711;DHT22;4392;47.400;8.062;2023-02-25T14:45:38;8.90;68.00
8711;DHT22;4392;47.400;8.062;2023-02-25T15:02:41;8.70;62.70
8711;DHT22;4392;47.400;8.062;2023-02-25T15:11:07;8.90;62.90
8711;DHT22;4392;47.400;8.062;2023-02-25T15:16:39;9.10;61.30
8711;DHT22;4392;47.400;8.062;2023-02-25T15:22:20;9.40;60.60
8711;DHT22;4392;47.400;8.062;2023-02-25T15:24:46;9.40;60.00
8711;DHT22;4392;47.400;8.062;2023-02-25T15:30:07;9.10;59.40
8711;DHT22;4392;47.400;8.062;2023-02-25T15:35:51;9.10;58.50
8711;DHT22;4392;47.400;8.062;2023-02-25T15:41:36;9.20;58.60
8711;DHT22;4392;47.400;8.062;2023-02-25T15:49:31;9.20;58.30
8711;DHT22;4392;47.400;8.062;2023-02-25T15:52:02;9.00;58.70
8711;DHT22;4392;47.400;8.062;2023-02-25T15:59:48;9.20;58.30
8711;DHT22;4392;47.400;8.062;2023-02-25T16:05:16;9.20;58.30
8711;DHT22;4392;47.400;8.062;2023-02-25T16:07:44;9.00;58.10
8711;DHT22;4392;47.400;8.062;2023-02-25T16:10:43;9.00;57.80
8711;DHT22;4392;47.400;8.062;2023-02-25T16:13:28;9.00;57.80
8711;DHT22;4392;47.400;8.062;2023-02-25T16:15:55;9.10;58.30
8711;DHT22;4392;47.400;8.062;2023-02-25T16:18:33;9.20;59.10
8711;DHT22;4392;47.400;8.062;2023-02-25T16:21:25;9.20;58.40
8711;DHT22;4392;47.400;8.062;2023-02-25T16:23:54;9.20;59.00
8711;DHT22;4392;47.400;8.062;2023-02-25T16:29:32;8.80;58.60
8711;DHT22;4392;47.400;8.062;2023-02-25T16:34:47;9.20;59.80
8711;DHT22;4392;47.400;8.062;2023-02-25T16:37:39;9.20;59.10
8711;DHT22;4392;47.400;8.062;2023-02-25T16:40:37;9.20;58.90
8711;DHT22;4392;47.400;8.062;2023-02-25T16:43:16;9.10;58.60
8711;DHT22;4392;47.400;8.062;2023-02-25T16:46:04;9.00;58.90
8711;DHT22;4392;47.400;8.062;2023-02-25T16:48:52;9.00;58.20
8711;DHT22;4392;47.400;8.062;2023-02-25T16:51:37;9.00;58.00
8711;DHT22;4392;47.400;8.062;2023-02-25T16:54:05;8.40;57.60
8711;DHT22;4392;47.400;8.062;2023-02-25T16:56:38;8.50;57.60
8711;DHT22;4392;47.400;8.062;2023-02-25T16:59:21;8.60;57.60
8711;DHT22;4392;47.400;8.062;2023-02-25T17:04:48;8.30;57.50
8711;DHT22;4392;47.400;8.062;2023-02-25T17:07:27;7.90;58.20
8711;DHT22;4392;47.400;8.062;2023-02-25T17:10:00;8.20;58.70
8711;DHT22;4392;47.400;8.062;2023-02-25T17:12:42;8.10;58.30
8711;DHT22;4392;47.400;8.062;2023-02-25T17:15:20;8.10;58.10
8711;DHT22;4392;47.400;8.062;2023-02-25T17:20:28;7.70;57.80
8711;DHT22;4392;47.400;8.062;2023-02-25T17:23:05;7.80;58.50
8711;DHT22;4392;47.400;8.062;2023-02-25T17:25:44;8.00;58.30
8711;DHT22;4392;47.400;8.062;2023-02-25T17:28:27;8.00;58.20
8711;DHT22;4392;47.400;8.062;2023-02-25T17:31:07;7.60;57.90
8711;DHT22;4392;47.400;8.062;2023-02-25T17:33:52;7.60;58.10
8711;DHT22;4392;47.400;8.062;2023-02-25T17:36:22;7.20;58.70
8711;DHT22;4392;47.400;8.062;2023-02-25T17:38:53;7.20;59.60
8711;DHT22;4392;47.400;8.062;2023-02-25T17:41:20;7.00;60.00
8711;DHT22;4392;47.400;8.062;2023-02-25T17:43:49;6.90;60.40
8711;DHT22;4392;47.400;8.062;2023-02-25T17:46:39;7.00;60.10
8711;DHT22;4392;47.400;8.062;2023-02-25T17:49:30;7.00;58.90
8711;DHT22;4392;47.400;8.062;2023-02-25T17:52:14;7.20;60.10
8711;DHT22;4392;47.400;8.062;2023-02-25T17:54:44;7.30;59.30
8711;DHT22;4392;47.400;8.062;2023-02-25T17:57:20;7.30;58.40
8711;DHT22;4392;47.400;8.062;2023-02-25T18:00:31;7.00;58.60
8711;DHT22;4392;47.400;8.062;2023-02-25T18:03:21;7.30;58.50
8711;DHT22;4392;47.400;8.062;2023-02-25T18:06:12;7.20;59.10
8711;DHT22;4392;47.400;8.062;2023-02-25T18:08:54;7.30;58.80
8711;DHT22;4392;47.400;8.062;2023-02-25T18:13:56;7.40;57.60
8711;DHT22;4392;47.400;8.062;2023-02-25T18:16:36;7.70;57.70
8711;DHT22;4392;47.400;8.062;2023-02-25T18:21:42;7.40;58.20
8711;DHT22;4392;47.400;8.062;2023-02-25T18:24:24;7.60;57.90
8711;DHT22;4392;47.400;8.062;2023-02-25T18:27:21;7.80;57.90
8711;DHT22;4392;47.400;8.062;2023-02-25T18:30:19;7.90;57.40
8711;DHT22;4392;47.400;8.062;2023-02-25T18:32:46;7.60;57.50
8711;DHT22;4392;47.400;8.062;2023-02-25T18:35:11;7.50;57.80
8711;DHT22;4392;47.400;8.062;2023-02-25T18:37:37;7.70;57.90
8711;DHT22;4392;47.400;8.062;2023-02-25T18:42:48;7.70;56.90
8711;DHT22;4392;47.400;8.062;2023-02-25T18:47:45;7.70;57.10
8711;DHT22;4392;47.400;8.062;2023-02-25T18:50:14;7.50;56.60
8711;DHT22;4392;47.400;8.062;2023-02-25T18:52:46;7.30;56.80
8711;DHT22;4392;47.400;8.062;2023-02-25T18:55:18;7.50;56.30
8711;DHT22;4392;47.400;8.062;2023-02-25T18:57:46;7.30;56.40
8711;DHT22;4392;47.400;8.062;2023-02-25T19:00:14;7.20;56.40
8711;DHT22;4392;47.400;8.062;2023-02-25T19:02:58;7.30;55.90
8711;DHT22;4392;47.400;8.062;2023-02-25T19:05:25;7.60;56.50
8711;DHT22;4392;47.400;8.062;2023-02-25T19:07:51;7.50;55.50
8711;DHT22;4392;47.400;8.062;2023-02-25T19:10:27;7.10;54.80
8711;DHT22;4392;47.400;8.062;2023-02-25T19:13:03;7.10;55.00
8711;DHT22;4392;47.400;8.062;2023-02-25T19:15:30;7.10;55.60
8711;DHT22;4392;47.400;8.062;2023-02-25T19:18:01;7.40;55.60
8711;DHT22;4392;47.400;8.062;2023-02-25T19:20:27;7.50;55.80
8711;DHT22;4392;47.400;8.062;2023-02-25T19:22:53;7.30;56.10
8711;DHT22;4392;47.400;8.062;2023-02-25T19:25:29;7.50;55.80
8711;DHT22;4392;47.400;8.062;2023-02-25T19:28:00;7.60;55.80
8711;DHT22;4392;47.400;8.062;2023-02-25T19:30:28;7.70;56.00
8711;DHT22;4392;47.400;8.062;2023-02-25T19:33:02;7.70;56.00
8711;DHT22;4392;47.400;8.062;2023-02-25T19:35:29;7.70;55.90
8711;DHT22;4392;47.400;8.062;2023-02-25T19:37:56;7.60;55.70
8711;DHT22;4392;47.400;8.062;2023-02-25T19:40:24;7.50;56.00
8711;DHT22;4392;47.400;8.062;2023-02-25T19:42:50;7.50;56.00
8711;DHT22;4392;47.400;8.062;2023-02-25T19:45:18;7.60;56.10
8711;DHT22;4392;47.400;8.062;2023-02-25T19:47:49;7.40;55.60
8711;DHT22;4392;47.400;8.062;2023-02-25T19:50:18;7.10;55.50
8711;DHT22;4392;47.400;8.062;2023-02-25T19:52:44;6.90;56.90
8711;DHT22;4392;47.400;8.062;2023-02-25T19:55:11;6.90;56.50
8711;DHT22;4392;47.400;8.062;2023-02-25T19:57:46;7.20;56.20
8711;DHT22;4392;47.400;8.062;2023-02-25T20:00:19;6.90;54.60
8711;DHT22;4392;47.400;8.062;2023-02-25T20:02:46;6.50;55.00
8711;DHT22;4392;47.400;8.062;2023-02-25T20:07:42;7.00;54.10
8711;DHT22;4392;47.400;8.062;2023-02-25T20:10:10;7.00;54.30
8711;DHT22;4392;47.400;8.062;2023-02-25T20:12:42;7.20;54.80
8711;DHT22;4392;47.400;8.062;2023-02-25T20:15:12;7.20;55.60
8711;DHT22;4392;47.400;8.062;2023-02-25T20:17:44;7.30;55.20
8711;DHT22;4392;47.400;8.062;2023-02-25T20:20:11;7.10;55.20
8711;DHT22;4392;47.400;8.062;2023-02-25T20:22:41;7.30;56.00
8711;DHT22;4392;47.400;8.062;2023-02-25T20:25:08;7.10;55.20
8711;DHT22;4392;47.400;8.062;2023-02-25T20:27:34;6.80;55.60
8711;DHT22;4392;47.400;8.062;2023-02-25T20:30:07;6.50;56.50
8711;DHT22;4392;47.400;8.062;2023-02-25T20:32:33;6.50;56.40
8711;DHT22;4392;47.400;8.062;2023-02-25T20:34:59;6.10;56.70
8711;DHT22;4392;47.400;8.062;2023-02-25T20:37:35;6.00;57.40
8711;DHT22;4392;47.400;8.062;2023-02-25T20:40:10;6.00;57.20
8711;DHT22;4392;47.400;8.062;2023-02-25T20:42:36;6.00;57.30
8711;DHT22;4392;47.400;8.062;2023-02-25T20:45:06;6.00;58.40
8711;DHT22;4392;47.400;8.062;2023-02-25T20:47:34;6.10;58.30
8711;DHT22;4392;47.400;8.062;2023-02-25T20:50:03;6.00;58.20
8711;DHT22;4392;47.400;8.062;2023-02-25T20:52:32;6.30;58.20
8711;DHT22;4392;47.400;8.062;2023-02-25T20:54:58;6.50;57.80
8711;DHT22;4392;47.400;8.062;2023-02-25T20:57:25;6.70;57.60
8711;DHT22;4392;47.400;8.062;2023-02-25T20:59:52;6.80;57.70
8711;DHT22;4392;47.400;8.062;2023-02-25T21:02:21;6.90;57.70
8711;DHT22;4392;47.400;8.062;2023-02-25T21:04:47;6.80;57.80
8711;DHT22;4392;47.400;8.062;2023-02-25T21:07:13;6.80;57.40
8711;DHT22;4392;47.400;8.062;2023-02-25T21:09:39;6.80;57.40
8711;DHT22;4392;47.400;8.062;2023-02-25T21:12:10;6.60;57.70
8711;DHT22;4392;47.400;8.062;2023-02-25T21:14:36;6.70;57.90
8711;DHT22;4392;47.400;8.062;2023-02-25T21:17:04;6.80;58.20